createdAt,value
2022-11-05T00:02:39.740Z,27.00
2022-11-05T00:05:27.064Z,26.40
2022-11-05T00:08:13.100Z,29.20
2022-11-05T00:10:40.205Z,25.40
2022-11-05T00:13:28.340Z,25.80
2022-11-05T00:16:14.021Z,22.60
2022-11-05T00:18:41.002Z,24.50
2022-11-05T00:21:28.028Z,23.40
2022-11-05T00:24:14.184Z,25.90
2022-11-05T00:26:41.134Z,22.20
2022-11-05T00:29:08.121Z,23.60
2022-11-05T00:31:35.097Z,20.70
2022-11-05T00:34:02.062Z,23.50
2022-11-05T00:36:29.014Z,25.30
2022-11-05T00:38:55.945Z,22.30
2022-11-05T00:41:22.931Z,22.10
2022-11-05T00:44:08.450Z,22.80
2022-11-05T00:46:35.377Z,24.90
2022-11-05T00:49:20.918Z,24.90
2022-11-05T00:51:47.861Z,24.90
2022-11-05T00:54:14.922Z,26.10
2022-11-05T00:56:41.941Z,24.80
2022-11-05T00:59:08.887Z,25.80
2022-11-05T01:01:35.903Z,32.70
2022-11-05T01:04:03.188Z,29.70
2022-11-05T01:06:30.124Z,29.40
2022-11-05T01:08:57.074Z,30.70
2022-11-05T01:11:33.392Z,30.30
2022-11-05T01:14:03.618Z,29.80
2022-11-05T01:16:31.700Z,27.50
2022-11-05T01:18:58.867Z,26.10
2022-11-05T01:21:25.893Z,26.20
2022-11-05T01:23:53.505Z,27.60
2022-11-05T01:26:20.580Z,26.00
2022-11-05T01:28:55.191Z,25.50
2022-11-05T01:31:23.162Z,27.30
2022-11-05T01:33:50.304Z,30.50
2022-11-05T01:36:17.983Z,27.90
2022-11-05T01:38:44.958Z,27.80
2022-11-05T01:41:12.130Z,27.40
2022-11-05T01:43:58.730Z,27.30
2022-11-05T01:46:33.274Z,29.30
2022-11-05T01:49:10.082Z,28.20
2022-11-05T01:51:37.753Z,27.70
2022-11-05T01:54:10.185Z,24.90
2022-11-05T01:56:45.818Z,24.40
2022-11-05T01:59:17.980Z,24.10
2022-11-05T02:01:45.172Z,23.70
2022-11-05T02:04:17.763Z,23.80
2022-11-05T02:06:46.171Z,22.60
2022-11-05T02:09:29.058Z,23.30
2022-11-05T02:11:56.710Z,22.10
2022-11-05T02:14:24.052Z,22.20
2022-11-05T02:16:57.943Z,27.30
2022-11-05T02:20:02.443Z,28.40
2022-11-05T02:23:00.943Z,31.80
2022-11-05T02:28:32.074Z,28.20
2022-11-05T02:31:05.111Z,26.40
2022-11-05T02:34:07.395Z,25.80
2022-11-05T02:36:43.365Z,25.10
2022-11-05T02:39:49.854Z,24.50
2022-11-05T02:42:35.189Z,23.60
2022-11-05T02:45:14.330Z,24.50
2022-11-05T02:47:46.540Z,21.20
2022-11-05T02:50:29.688Z,21.20
2022-11-05T02:53:40.592Z,23.10
2022-11-05T02:56:28.568Z,21.60
2022-11-05T02:58:55.541Z,22.00
2022-11-05T03:01:22.628Z,22.90
2022-11-05T03:03:57.960Z,23.20
2022-11-05T03:06:59.042Z,23.70
2022-11-05T03:09:35.106Z,24.90
2022-11-05T03:12:05.104Z,24.30
2022-11-05T03:14:39.789Z,24.30
2022-11-05T03:17:11.752Z,23.00
2022-11-05T03:19:53.634Z,22.00
2022-11-05T03:22:28.729Z,21.90
2022-11-05T03:25:01.326Z,22.10
2022-11-05T03:27:35.891Z,20.00
2022-11-05T03:30:07.580Z,22.60
2022-11-05T03:32:39.322Z,22.10
2022-11-05T03:35:15.984Z,20.00
2022-11-05T03:37:46.942Z,20.80
2022-11-05T03:40:18.052Z,20.90
2022-11-05T03:42:49.605Z,22.80
2022-11-05T03:45:32.247Z,22.30
2022-11-05T03:48:02.022Z,22.00
2022-11-05T03:50:58.762Z,22.50
2022-11-05T03:53:29.129Z,21.90
2022-11-05T03:56:13.659Z,22.60
2022-11-05T03:58:44.264Z,24.40
2022-11-05T04:01:12.018Z,22.00
2022-11-05T04:03:38.957Z,23.90
2022-11-05T04:06:25.850Z,22.70
2022-11-05T04:09:13.170Z,23.70
2022-11-05T04:11:59.037Z,20.80
2022-11-05T04:14:26.075Z,21.50
2022-11-05T04:17:11.169Z,21.80
2022-11-05T04:19:58.847Z,26.50
2022-11-05T04:22:46.383Z,27.30
2022-11-05T04:25:15.337Z,25.00
2022-11-05T04:30:19.211Z,25.30
2022-11-05T04:33:06.524Z,25.80
2022-11-05T04:35:38.547Z,23.40
2022-11-05T04:38:08.200Z,24.80
2022-11-05T04:40:36.081Z,26.40
2022-11-05T04:43:03.820Z,28.90
2022-11-05T04:45:33.965Z,24.30
2022-11-05T04:48:02.656Z,28.50
2022-11-05T04:50:30.843Z,25.10
2022-11-05T04:52:58.523Z,26.30
2022-11-05T04:55:26.284Z,25.30
2022-11-05T04:57:54.192Z,26.10
2022-11-05T05:00:22.932Z,26.50
2022-11-05T05:02:50.179Z,25.00
2022-11-05T05:05:17.569Z,28.10
2022-11-05T05:07:44.585Z,37.50
2022-11-05T05:10:11.786Z,28.10
2022-11-05T05:12:38.794Z,25.30
2022-11-05T05:15:06.296Z,26.50
2022-11-05T05:17:33.630Z,20.80
2022-11-05T05:20:19.201Z,20.80
2022-11-05T05:22:55.681Z,22.50
2022-11-05T05:25:23.054Z,18.60
2022-11-05T05:27:50.282Z,20.20
2022-11-05T05:30:17.552Z,19.80
2022-11-05T05:32:44.611Z,17.50
2022-11-05T05:35:11.674Z,20.60
2022-11-05T05:37:38.848Z,18.60
2022-11-05T05:40:06.582Z,20.80
2022-11-05T05:42:37.470Z,20.50
2022-11-05T05:45:07.451Z,18.40
2022-11-05T05:47:34.453Z,20.60
2022-11-05T05:50:01.472Z,22.30
2022-11-05T05:52:28.472Z,24.90
2022-11-05T05:54:55.481Z,22.90
2022-11-05T05:57:22.514Z,23.70
2022-11-05T05:59:49.513Z,25.10
2022-11-05T06:02:16.763Z,23.80
2022-11-05T06:04:43.858Z,27.10
2022-11-05T06:07:10.918Z,23.00
2022-11-05T06:09:38.010Z,38.70
2022-11-05T06:12:05.479Z,39.00
2022-11-05T06:14:32.503Z,33.00
2022-11-05T06:16:59.489Z,27.40
2022-11-05T06:19:26.766Z,24.20
2022-11-05T06:21:53.807Z,23.60
2022-11-05T06:24:20.971Z,51.30
2022-11-05T06:26:48.097Z,52.40
2022-11-05T06:29:15.372Z,31.70
2022-11-05T06:31:42.438Z,30.70
2022-11-05T06:34:09.603Z,30.20
2022-11-05T06:36:36.580Z,24.00
2022-11-05T06:39:03.847Z,24.70
2022-11-05T06:41:30.827Z,22.90
2022-11-05T06:43:58.013Z,25.90
2022-11-05T06:46:25.073Z,26.20
2022-11-05T06:48:52.279Z,28.90
2022-11-05T06:51:19.313Z,27.50
2022-11-05T06:53:46.561Z,31.60
2022-11-05T06:56:13.816Z,26.20
2022-11-05T06:58:41.069Z,27.50
2022-11-05T07:01:10.209Z,26.50
2022-11-05T07:03:38.251Z,27.30
2022-11-05T07:06:07.258Z,27.40
2022-11-05T07:08:36.369Z,25.60
2022-11-05T07:11:04.169Z,26.50
2022-11-05T07:13:31.568Z,27.30
2022-11-05T07:15:58.968Z,28.10
2022-11-05T07:18:26.264Z,40.40
2022-11-05T07:20:53.559Z,43.80
2022-11-05T07:23:21.092Z,23.80
2022-11-05T07:25:48.469Z,22.90
2022-11-05T07:28:15.691Z,31.60
2022-11-05T07:30:43.015Z,25.90
2022-11-05T07:33:10.423Z,40.20
2022-11-05T07:35:37.893Z,28.40
2022-11-05T07:38:05.157Z,21.90
2022-11-05T07:40:32.528Z,37.50
2022-11-05T07:43:01.267Z,18.20
2022-11-05T07:48:02.741Z,19.30
2022-11-05T07:50:32.823Z,21.40
2022-11-05T07:53:04.847Z,26.30
2022-11-05T07:55:33.262Z,20.50
2022-11-05T07:58:00.584Z,24.80
2022-11-05T08:00:29.321Z,25.20
2022-11-05T08:05:36.521Z,25.90
2022-11-05T08:08:05.029Z,22.80
2022-11-05T08:10:33.705Z,32.10
2022-11-05T08:15:28.303Z,24.30
2022-11-05T08:18:06.631Z,18.10
2022-11-05T08:20:34.895Z,21.50
2022-11-05T08:23:02.733Z,20.50
2022-11-05T08:25:30.671Z,20.20
2022-11-05T08:28:08.442Z,16.00
2022-11-05T08:30:36.028Z,21.40
2022-11-05T08:33:06.264Z,21.50
2022-11-05T08:35:35.962Z,25.80
2022-11-05T08:38:05.608Z,19.80
2022-11-05T08:40:35.121Z,16.90
2022-11-05T08:43:05.039Z,18.50
2022-11-05T08:45:33.816Z,93.10
2022-11-05T08:48:02.424Z,17.70
2022-11-05T08:50:31.845Z,37.30
2022-11-05T08:52:59.361Z,41.80
2022-11-05T08:55:27.413Z,20.20
2022-11-05T08:57:56.320Z,71.90
2022-11-05T09:02:50.833Z,27.80
2022-11-05T09:05:18.062Z,32.40
2022-11-05T09:07:46.289Z,29.50
2022-11-05T09:10:13.483Z,19.00
2022-11-05T09:12:40.696Z,18.40
2022-11-05T09:15:08.980Z,41.60
2022-11-05T09:17:36.361Z,28.60
2022-11-05T09:20:06.586Z,33.20
2022-11-05T09:22:37.874Z,19.30
2022-11-05T09:25:08.338Z,29.10
2022-11-05T09:27:35.849Z,31.40
2022-11-05T09:30:04.681Z,17.90
2022-11-05T09:32:32.719Z,16.10
2022-11-05T09:35:00.758Z,16.60
2022-11-05T09:37:29.385Z,16.10
2022-11-05T09:39:57.421Z,15.20
2022-11-05T09:42:34.339Z,16.30
2022-11-05T09:45:15.198Z,20.90
2022-11-05T09:47:47.366Z,17.90
2022-11-05T09:50:32.261Z,14.60
2022-11-05T09:53:00.500Z,20.80
2022-11-05T09:55:32.764Z,22.20
2022-11-05T09:58:04.298Z,22.00
2022-11-05T10:00:33.604Z,17.70
2022-11-05T10:03:06.243Z,36.80
2022-11-05T10:05:34.362Z,25.10
2022-11-05T10:08:16.391Z,21.30
2022-11-05T10:10:55.607Z,18.00
2022-11-05T10:13:37.321Z,17.80
2022-11-05T10:16:32.177Z,17.80
2022-11-05T10:19:14.205Z,15.60
2022-11-05T10:22:05.589Z,17.70
2022-11-05T10:24:29.107Z,15.30
2022-11-05T10:26:57.363Z,16.10
2022-11-05T10:29:29.958Z,19.00
2022-11-05T10:32:01.175Z,15.50
2022-11-05T10:34:34.102Z,22.90
2022-11-05T10:37:01.704Z,17.60
2022-11-05T10:39:32.125Z,18.80
2022-11-05T10:42:05.354Z,18.60
2022-11-05T10:44:54.386Z,19.90
2022-11-05T10:47:50.396Z,17.40
2022-11-05T10:50:29.572Z,18.10
2022-11-05T10:53:14.777Z,17.70
2022-11-05T10:55:46.219Z,18.00
2022-11-05T10:58:13.335Z,17.10
2022-11-05T11:00:43.540Z,27.10
2022-11-05T11:03:34.431Z,18.40
2022-11-05T11:06:24.061Z,26.20
2022-11-05T11:08:55.028Z,17.70
2022-11-05T11:11:29.949Z,18.20
2022-11-05T11:13:57.140Z,20.80
2022-11-05T11:16:27.422Z,20.40
2022-11-05T11:19:00.512Z,21.50
2022-11-05T11:21:31.238Z,19.20
2022-11-05T11:24:08.933Z,18.40
2022-11-05T11:26:38.336Z,18.10
2022-11-05T11:29:14.203Z,17.40
2022-11-05T11:31:41.985Z,19.00
2022-11-05T11:34:20.466Z,17.90
2022-11-05T11:39:23.497Z,15.10
2022-11-05T11:41:54.578Z,23.10
2022-11-05T11:44:26.901Z,18.50
2022-11-05T11:46:58.070Z,18.20
2022-11-05T11:49:43.909Z,19.50
2022-11-05T11:52:18.944Z,18.70
2022-11-05T11:54:46.252Z,17.40
2022-11-05T11:57:28.318Z,17.20
2022-11-05T12:00:14.084Z,18.30
2022-11-05T12:03:08.686Z,20.00
2022-11-05T12:06:01.290Z,18.60
2022-11-05T12:08:56.535Z,17.80
2022-11-05T12:11:34.820Z,20.40
2022-11-05T12:14:12.961Z,17.30
2022-11-05T12:17:10.282Z,19.40
2022-11-05T12:19:59.521Z,19.20
2022-11-05T12:22:45.207Z,18.10
2022-11-05T12:25:35.757Z,18.20
2022-11-05T12:28:11.797Z,20.40
2022-11-05T12:30:54.000Z,20.70
2022-11-05T12:33:45.613Z,24.00
2022-11-05T12:36:46.841Z,20.20
2022-11-05T12:39:23.038Z,19.70
2022-11-05T12:42:07.015Z,18.80
2022-11-05T12:44:48.150Z,19.60
2022-11-05T12:47:30.412Z,21.30
2022-11-05T12:50:16.615Z,30.60
2022-11-05T12:53:13.176Z,50.00
2022-11-05T12:55:48.355Z,24.70
2022-11-05T12:58:48.256Z,23.80
2022-11-05T13:01:27.212Z,25.40
2022-11-05T13:04:15.092Z,23.40
2022-11-05T13:06:48.737Z,20.10
2022-11-05T13:09:25.521Z,22.10
2022-11-05T13:11:58.395Z,22.60
2022-11-05T13:14:34.546Z,19.70
2022-11-05T13:17:24.508Z,24.10
2022-11-05T13:20:14.519Z,23.50
2022-11-05T13:22:48.151Z,23.80
2022-11-05T13:25:28.294Z,21.80
2022-11-05T13:28:17.118Z,27.50
2022-11-05T13:30:48.298Z,27.80
2022-11-05T13:33:27.589Z,31.30
2022-11-05T13:36:17.887Z,26.50
2022-11-05T13:39:06.413Z,27.60
2022-11-05T13:44:59.063Z,28.10
2022-11-05T13:47:38.148Z,28.60
2022-11-05T13:50:36.269Z,32.80
2022-11-05T13:55:49.214Z,27.50
2022-11-05T13:58:42.670Z,28.00
2022-11-05T14:01:24.338Z,27.10
2022-11-05T14:03:55.213Z,26.80
2022-11-05T14:06:33.703Z,28.80
2022-11-05T14:09:06.939Z,30.90
2022-11-05T14:11:40.759Z,32.80
2022-11-05T14:14:20.482Z,32.10
2022-11-05T14:16:47.677Z,31.50
2022-11-05T14:19:17.899Z,38.60
2022-11-05T14:21:52.655Z,38.10
2022-11-05T14:24:22.582Z,34.70
2022-11-05T14:27:01.963Z,33.60
2022-11-05T14:29:39.414Z,30.20
2022-11-05T14:32:24.610Z,26.30
2022-11-05T14:35:03.479Z,23.40
2022-11-05T14:37:36.436Z,22.70
2022-11-05T14:40:19.017Z,30.90
2022-11-05T14:42:51.505Z,27.00
2022-11-05T14:45:40.072Z,26.80
2022-11-05T14:50:51.385Z,30.10
2022-11-05T14:53:30.667Z,37.50
2022-11-05T14:56:18.690Z,30.10
2022-11-05T14:58:46.425Z,28.20
2022-11-05T15:01:13.607Z,29.70
2022-11-05T15:03:45.864Z,80.40
2022-11-05T15:06:19.847Z,37.00
2022-11-05T15:08:49.737Z,38.80
2022-11-05T15:11:37.555Z,64.90
2022-11-05T15:14:30.297Z,52.20
2022-11-05T15:17:17.932Z,64.60
2022-11-05T15:19:46.761Z,63.00
2022-11-05T15:25:03.994Z,53.70
2022-11-05T15:27:50.028Z,52.00
2022-11-05T15:30:19.864Z,51.20
2022-11-05T15:32:47.104Z,59.00
2022-11-05T15:35:23.028Z,52.40
2022-11-05T15:37:54.842Z,47.30
2022-11-05T15:40:29.693Z,47.70
2022-11-05T15:43:19.062Z,49.70
2022-11-05T15:45:59.213Z,56.00
2022-11-05T15:48:26.430Z,55.40
2022-11-05T15:50:53.759Z,63.80
2022-11-05T15:53:51.482Z,69.20
2022-11-05T15:56:38.468Z,80.70
2022-11-05T15:59:32.146Z,87.40
2022-11-05T16:02:18.018Z,87.50
2022-11-05T16:04:47.825Z,111.50
2022-11-05T16:07:15.828Z,94.40
2022-11-05T16:09:53.030Z,90.10
2022-11-05T16:12:20.375Z,87.20
2022-11-05T16:15:16.933Z,83.30
2022-11-05T16:17:50.897Z,98.20
2022-11-05T16:20:28.779Z,95.40
2022-11-05T16:22:59.005Z,84.40
2022-11-05T16:25:43.084Z,83.60
2022-11-05T16:28:23.492Z,83.60
2022-11-05T16:30:56.135Z,77.60
2022-11-05T16:33:25.627Z,78.60
2022-11-05T16:35:53.107Z,73.50
2022-11-05T16:38:20.579Z,78.70
2022-11-05T16:40:47.823Z,79.80
2022-11-05T16:43:21.622Z,80.80
2022-11-05T16:45:48.952Z,76.10
2022-11-05T16:48:16.461Z,78.40
2022-11-05T16:50:45.472Z,85.60
2022-11-05T16:53:13.287Z,74.10
2022-11-05T16:55:42.444Z,88.90
2022-11-05T16:58:20.738Z,90.20
2022-11-05T17:00:50.631Z,80.10
2022-11-05T17:03:18.322Z,82.70
2022-11-05T17:05:45.664Z,88.10
2022-11-05T17:08:13.046Z,69.80
2022-11-05T17:10:40.527Z,67.80
2022-11-05T17:13:12.688Z,74.00
2022-11-05T17:15:41.375Z,75.30
2022-11-05T17:20:45.562Z,78.40
2022-11-05T17:23:15.290Z,95.40
2022-11-05T17:25:45.135Z,95.30
2022-11-05T17:28:13.326Z,96.50
2022-11-05T17:30:41.912Z,92.30
2022-11-05T17:33:10.749Z,113.10
2022-11-05T17:35:39.722Z,108.10
2022-11-05T17:38:07.045Z,92.40
2022-11-05T17:40:35.425Z,99.60
2022-11-05T17:43:03.035Z,76.20
2022-11-05T17:45:30.692Z,62.90
2022-11-05T17:47:57.901Z,64.30
2022-11-05T17:50:24.973Z,60.20
2022-11-05T17:52:51.933Z,57.40
2022-11-05T17:55:19.037Z,61.90
2022-11-05T17:57:48.493Z,64.50
2022-11-05T18:00:20.992Z,59.00
2022-11-05T18:02:49.131Z,65.50
2022-11-05T18:05:17.894Z,82.80
2022-11-05T18:07:46.302Z,66.20
2022-11-05T18:10:14.224Z,61.20
2022-11-05T18:12:41.356Z,46.60
2022-11-05T18:15:09.251Z,43.10
2022-11-05T18:17:36.334Z,38.90
2022-11-05T18:20:09.133Z,36.80
2022-11-05T18:22:38.499Z,37.70
2022-11-05T18:25:07.104Z,41.50
2022-11-05T18:27:34.862Z,34.00
2022-11-05T18:30:02.889Z,31.00
2022-11-05T18:32:30.078Z,33.30
2022-11-05T18:34:57.045Z,40.20
2022-11-05T18:37:24.085Z,47.60
2022-11-05T18:39:51.540Z,51.10
2022-11-05T18:42:20.155Z,66.20
2022-11-05T18:44:47.986Z,71.20
2022-11-05T18:47:15.219Z,71.90
2022-11-05T18:49:42.246Z,58.60
2022-11-05T18:52:09.261Z,57.10
2022-11-05T18:54:36.309Z,56.40
2022-11-05T18:57:03.561Z,59.30
2022-11-05T18:59:37.781Z,64.80
2022-11-05T19:02:07.332Z,74.40
2022-11-05T19:04:35.873Z,75.60
2022-11-05T19:07:05.518Z,72.60
2022-11-05T19:09:34.365Z,75.70
2022-11-05T19:12:02.265Z,73.60
2022-11-05T19:14:29.716Z,59.90
2022-11-05T19:16:57.853Z,79.30
2022-11-05T19:19:25.410Z,87.50
2022-11-05T19:21:52.693Z,84.90
2022-11-05T19:24:20.073Z,87.50
2022-11-05T19:26:47.594Z,88.40
2022-11-05T19:29:14.558Z,83.60
2022-11-05T19:31:41.787Z,88.00
2022-11-05T19:34:08.777Z,100.50
2022-11-05T19:36:35.837Z,107.00
2022-11-05T19:39:05.989Z,98.60
2022-11-05T19:41:33.025Z,95.80
2022-11-05T19:44:03.047Z,95.40
2022-11-05T19:46:30.786Z,99.00
2022-11-05T19:48:59.881Z,133.00
2022-11-05T19:51:29.741Z,119.10
2022-11-05T19:53:59.492Z,102.60
2022-11-05T19:56:32.136Z,97.60
2022-11-05T19:59:00.190Z,94.80
2022-11-05T20:01:28.820Z,96.20
2022-11-05T20:06:30.836Z,82.70
2022-11-05T20:11:49.280Z,54.10
2022-11-05T20:14:16.512Z,55.60
2022-11-05T20:16:45.287Z,54.60
2022-11-05T20:21:41.448Z,46.20
2022-11-05T20:24:11.325Z,47.90
2022-11-05T20:26:39.137Z,47.50
2022-11-05T20:29:06.276Z,48.50
2022-11-05T20:31:34.017Z,50.40
2022-11-05T20:34:01.114Z,59.30
2022-11-05T20:36:28.129Z,61.10
2022-11-05T20:39:02.318Z,49.30
2022-11-05T20:41:30.285Z,44.40
2022-11-05T20:43:57.518Z,43.50
2022-11-05T20:46:25.063Z,45.90
2022-11-05T20:48:53.460Z,44.60
2022-11-05T20:51:22.121Z,39.90
2022-11-05T20:53:54.462Z,45.10
2022-11-05T20:56:27.234Z,42.40
2022-11-05T20:58:57.427Z,47.70
2022-11-05T21:01:26.288Z,43.70
2022-11-05T21:03:53.634Z,50.30
2022-11-05T21:06:21.204Z,55.60
2022-11-05T21:08:49.962Z,55.40
2022-11-05T21:11:18.786Z,67.90
2022-11-05T21:13:46.201Z,59.50
2022-11-05T21:16:18.250Z,57.60
2022-11-05T21:18:46.758Z,58.30
2022-11-05T21:21:17.215Z,51.60
2022-11-05T21:23:44.667Z,52.80
2022-11-05T21:26:13.616Z,53.80
2022-11-05T21:28:41.426Z,52.70
2022-11-05T21:31:09.505Z,49.50
2022-11-05T21:33:37.204Z,46.30
2022-11-05T21:36:10.042Z,48.30
2022-11-05T21:38:37.967Z,47.60
2022-11-05T21:41:05.881Z,52.60
2022-11-05T21:43:33.574Z,48.60
2022-11-05T21:46:01.953Z,62.50
2022-11-05T21:48:29.405Z,59.10
2022-11-05T21:51:14.927Z,49.80
2022-11-05T21:54:00.457Z,42.10
2022-11-05T21:56:46.603Z,40.50
2022-11-05T21:59:35.236Z,51.60
2022-11-05T22:04:31.707Z,62.90
2022-11-05T22:06:59.097Z,60.60
2022-11-05T22:09:26.833Z,53.60
2022-11-05T22:11:54.274Z,46.10
2022-11-05T22:14:21.312Z,46.90
2022-11-05T22:16:48.512Z,42.10
2022-11-05T22:19:15.548Z,36.80
2022-11-05T22:21:42.653Z,36.40
2022-11-05T22:24:10.104Z,35.30
2022-11-05T22:26:39.372Z,38.20
2022-11-05T22:29:06.901Z,37.60
2022-11-05T22:31:36.560Z,41.30
2022-11-05T22:34:05.561Z,43.90
2022-11-05T22:36:34.000Z,40.20
2022-11-05T22:39:01.748Z,50.50
2022-11-05T22:41:29.041Z,50.10
2022-11-05T22:43:56.962Z,50.90
2022-11-05T22:46:26.048Z,45.00
2022-11-05T22:48:53.595Z,49.60
2022-11-05T22:51:23.474Z,44.60
2022-11-05T22:53:50.627Z,48.90
2022-11-05T22:56:21.143Z,45.10
2022-11-05T22:58:49.070Z,42.10
2022-11-05T23:01:19.891Z,36.40
2022-11-05T23:03:49.243Z,34.70
2022-11-05T23:06:36.685Z,35.00
2022-11-05T23:09:25.477Z,40.00
2022-11-05T23:11:53.502Z,26.20
2022-11-05T23:14:20.545Z,27.70
2022-11-05T23:17:06.060Z,30.90
2022-11-05T23:19:51.750Z,26.40
2022-11-05T23:22:43.932Z,21.10
2022-11-05T23:25:16.531Z,18.10
2022-11-05T23:27:45.026Z,18.70
2022-11-05T23:30:21.038Z,17.70
2022-11-05T23:32:48.506Z,20.40
2022-11-05T23:35:16.307Z,23.80
2022-11-05T23:38:01.855Z,26.30
2022-11-05T23:40:51.156Z,26.10
2022-11-05T23:43:36.632Z,22.90
2022-11-05T23:46:22.007Z,32.30
2022-11-05T23:48:50.175Z,30.60
2022-11-05T23:51:17.380Z,30.40
2022-11-05T23:53:44.399Z,25.80
2022-11-05T23:56:14.547Z,25.20
2022-11-05T23:58:42.325Z,22.80
